Nevsehir, Turkey
Current Conditions -  °F | °C
As of 12:50 AM on Monday 24 Nov 2014 (Local Time) from LTAZ Reporting Station
Scattered Clouds Scattered Clouds  
Wind Chill: -1°   Ceiling: Unl
Heat Index:   Visibility: 6mi
Dew Point: -3°   Wind: 9mph
Humidity: 65%   Direction: 50°NE
Pressure: 30.12"   Gusts: NA
Location:  38.63°N, 34.72°E
Report Text: LTAZ 232150Z 05008KT 9999 SCT040 03/M03 Q1020
Loading
Personal Weather Stations






























Interactive Weather Map New forecast layout! Learn more

10-Day Weather Forecast

Advertisements
Track Severe Weather on mobile